createdAt,value
2018-12-16T00:01:17.529Z,60.80
2018-12-16T00:03:45.011Z,60.50
2018-12-16T00:06:12.650Z,60.30
2018-12-16T00:08:40.095Z,60.60
2018-12-16T00:11:07.563Z,60.60
2018-12-16T00:13:35.132Z,60.70
2018-12-16T00:16:02.597Z,60.80
2018-12-16T00:18:30.089Z,60.80
2018-12-16T00:20:57.531Z,60.90
2018-12-16T00:23:24.993Z,60.90
2018-12-16T00:25:52.499Z,61.00
2018-12-16T00:28:20.007Z,60.80
2018-12-16T00:30:47.448Z,60.80
2018-12-16T00:33:14.908Z,61.30
2018-12-16T00:35:42.379Z,61.30
2018-12-16T00:38:09.889Z,61.20
2018-12-16T00:40:37.350Z,61.10
2018-12-16T00:43:04.805Z,61.30
2018-12-16T00:45:32.268Z,61.40
2018-12-16T00:47:59.741Z,61.30
2018-12-16T00:50:27.388Z,61.40
2018-12-16T00:52:54.859Z,61.30
2018-12-16T00:55:22.361Z,61.70
2018-12-16T00:57:49.820Z,61.80
2018-12-16T01:00:17.657Z,61.70
2018-12-16T01:02:45.097Z,61.70
2018-12-16T01:05:12.557Z,61.70
2018-12-16T01:07:39.990Z,61.80
2018-12-16T01:10:08.703Z,61.60
2018-12-16T01:12:36.149Z,61.40
2018-12-16T01:15:04.048Z,61.60
2018-12-16T01:17:31.524Z,62.00
2018-12-16T01:19:58.998Z,62.10
2018-12-16T01:22:26.553Z,62.20
2018-12-16T01:24:54.034Z,62.20
2018-12-16T01:27:21.510Z,62.20
2018-12-16T01:29:48.987Z,62.40
2018-12-16T01:32:16.429Z,62.60
2018-12-16T01:34:43.938Z,62.10
2018-12-16T01:37:11.493Z,61.80
2018-12-16T01:39:38.999Z,61.80
2018-12-16T01:42:06.616Z,61.80
2018-12-16T01:44:34.069Z,61.70
2018-12-16T01:47:01.552Z,61.50
2018-12-16T01:49:29.064Z,61.20
2018-12-16T01:51:56.548Z,62.10
2018-12-16T01:54:24.012Z,60.90
2018-12-16T01:56:51.487Z,60.90
2018-12-16T01:59:18.969Z,60.80
2018-12-16T02:01:52.213Z,61.20
2018-12-16T02:04:19.675Z,61.30
2018-12-16T02:06:47.220Z,60.90
2018-12-16T02:09:14.715Z,60.80
2018-12-16T02:11:42.308Z,60.90
2018-12-16T02:14:09.740Z,60.90
2018-12-16T02:16:37.274Z,61.00
2018-12-16T02:19:04.754Z,61.10
2018-12-16T02:21:32.192Z,61.00
2018-12-16T02:23:59.740Z,60.60
2018-12-16T02:26:27.240Z,60.40
2018-12-16T02:28:54.809Z,60.40
2018-12-16T02:31:22.252Z,60.60
2018-12-16T02:33:49.704Z,60.60
2018-12-16T02:36:17.187Z,60.70
2018-12-16T02:38:44.803Z,60.80
2018-12-16T02:41:12.252Z,60.80
2018-12-16T02:43:39.826Z,60.70
2018-12-16T02:46:07.395Z,60.80
2018-12-16T02:48:34.876Z,60.90
2018-12-16T02:51:02.379Z,60.90
2018-12-16T02:53:29.843Z,60.90
2018-12-16T02:55:57.305Z,60.30
2018-12-16T02:58:24.756Z,60.70
2018-12-16T03:00:53.099Z,60.80
2018-12-16T03:03:20.640Z,60.00
2018-12-16T03:05:48.122Z,60.90
2018-12-16T03:08:15.615Z,60.80
2018-12-16T03:10:43.076Z,61.00
2018-12-16T03:13:10.530Z,61.20
2018-12-16T03:15:38.023Z,61.00
2018-12-16T03:18:05.461Z,61.20
2018-12-16T03:20:32.957Z,61.40
2018-12-16T03:23:00.493Z,61.20
2018-12-16T03:25:28.066Z,61.20
2018-12-16T03:27:55.534Z,61.30
2018-12-16T03:30:23.467Z,60.90
2018-12-16T03:32:51.123Z,60.80
2018-12-16T03:35:18.697Z,60.80
2018-12-16T03:37:46.130Z,60.80
2018-12-16T03:40:13.601Z,60.70
2018-12-16T03:42:41.096Z,60.70
2018-12-16T03:45:08.716Z,60.70
2018-12-16T03:47:36.229Z,60.50
2018-12-16T03:50:04.247Z,60.50
2018-12-16T03:52:31.744Z,60.50
2018-12-16T03:54:59.196Z,60.30
2018-12-16T03:57:26.659Z,60.20
2018-12-16T03:59:54.115Z,60.20
2018-12-16T04:02:22.349Z,60.40
2018-12-16T04:04:49.792Z,61.40
2018-12-16T04:07:17.368Z,60.00
2018-12-16T04:09:44.863Z,60.00
2018-12-16T04:12:12.351Z,60.10
2018-12-16T04:14:41.313Z,60.00
2018-12-16T04:17:09.402Z,60.00
2018-12-16T04:19:36.836Z,60.30
2018-12-16T04:22:04.324Z,60.50
2018-12-16T04:24:31.777Z,61.40
2018-12-16T04:26:59.246Z,60.10
2018-12-16T04:29:26.695Z,60.00
2018-12-16T04:31:54.449Z,60.10
2018-12-16T04:34:21.942Z,60.50
2018-12-16T04:36:49.512Z,60.80
2018-12-16T04:39:16.979Z,62.00
2018-12-16T04:41:44.449Z,62.50
2018-12-16T04:44:11.952Z,63.60
2018-12-16T04:46:39.435Z,64.60
2018-12-16T04:49:06.884Z,65.80
2018-12-16T04:51:34.367Z,67.50
2018-12-16T04:54:02.031Z,68.10
2018-12-16T04:56:29.542Z,69.10
2018-12-16T04:58:57.087Z,69.50
2018-12-16T05:01:24.523Z,71.10
2018-12-16T05:03:52.054Z,71.50
2018-12-16T05:06:19.718Z,71.90
2018-12-16T05:08:47.331Z,72.70
2018-12-16T05:11:14.796Z,72.90
2018-12-16T05:13:42.272Z,73.50
2018-12-16T05:16:09.729Z,74.20
2018-12-16T05:18:37.312Z,74.10
2018-12-16T05:21:04.835Z,74.50
2018-12-16T05:23:32.346Z,74.80
2018-12-16T05:25:59.792Z,75.30
2018-12-16T05:28:27.265Z,75.40
2018-12-16T05:30:54.753Z,76.20
2018-12-16T05:33:22.216Z,75.60
2018-12-16T05:35:49.725Z,75.80
2018-12-16T05:38:17.180Z,76.20
2018-12-16T05:40:44.734Z,76.10
2018-12-16T05:43:12.201Z,76.20
2018-12-16T05:45:39.665Z,76.50
2018-12-16T05:48:07.141Z,77.70
2018-12-16T05:50:34.593Z,76.70
2018-12-16T05:53:02.091Z,76.70
2018-12-16T05:55:29.594Z,76.90
2018-12-16T05:57:57.046Z,76.90
2018-12-16T06:00:24.491Z,77.10
2018-12-16T06:02:52.048Z,76.90
2018-12-16T06:05:19.517Z,76.80
2018-12-16T06:07:46.992Z,76.80
2018-12-16T06:10:14.448Z,76.70
2018-12-16T06:12:41.911Z,76.60
2018-12-16T06:15:09.439Z,76.80
2018-12-16T06:17:36.953Z,76.90
2018-12-16T06:20:04.841Z,76.90
2018-12-16T06:22:32.292Z,77.10
2018-12-16T06:24:59.756Z,77.00
2018-12-16T06:27:27.210Z,77.00
2018-12-16T06:29:54.988Z,76.90
2018-12-16T06:32:23.180Z,76.90
2018-12-16T06:34:50.670Z,77.00
2018-12-16T06:37:18.150Z,76.80
2018-12-16T06:39:45.624Z,76.90
2018-12-16T06:42:13.121Z,77.20
2018-12-16T06:44:40.589Z,77.40
2018-12-16T06:47:08.057Z,77.40
2018-12-16T06:49:35.534Z,77.60
2018-12-16T06:52:03.001Z,77.70
2018-12-16T06:54:31.053Z,77.70
2018-12-16T06:56:58.627Z,77.70
2018-12-16T06:59:26.101Z,77.70
2018-12-16T07:01:53.640Z,77.60
2018-12-16T07:04:21.155Z,77.90
2018-12-16T07:06:48.620Z,77.90
2018-12-16T07:09:16.097Z,77.80
2018-12-16T07:11:43.896Z,77.70
2018-12-16T07:14:11.345Z,77.60
2018-12-16T07:16:38.840Z,77.70
2018-12-16T07:19:06.288Z,77.70
2018-12-16T07:21:33.813Z,78.20
2018-12-16T07:24:01.399Z,78.30
2018-12-16T07:26:28.886Z,78.40
2018-12-16T07:28:56.324Z,78.70
2018-12-16T07:31:23.818Z,78.90
2018-12-16T07:33:51.333Z,79.10
2018-12-16T07:36:18.801Z,79.30
2018-12-16T07:38:46.283Z,79.40
2018-12-16T07:41:13.770Z,79.60
2018-12-16T07:43:41.284Z,79.50
2018-12-16T07:46:08.782Z,79.70
2018-12-16T07:48:36.229Z,79.90
2018-12-16T07:51:03.754Z,79.80
2018-12-16T07:53:31.234Z,80.00
2018-12-16T07:55:58.692Z,80.20
2018-12-16T07:58:26.243Z,80.20
2018-12-16T08:00:53.751Z,80.30
2018-12-16T08:03:21.267Z,80.20
2018-12-16T08:05:48.864Z,80.00
2018-12-16T08:08:16.327Z,79.90
2018-12-16T08:10:43.947Z,79.60
2018-12-16T08:13:11.427Z,79.30
2018-12-16T08:15:38.867Z,79.00
2018-12-16T08:18:06.434Z,79.00
2018-12-16T08:20:33.891Z,78.70
2018-12-16T08:23:01.365Z,78.50
2018-12-16T08:25:28.859Z,78.30
2018-12-16T08:27:56.340Z,78.20
2018-12-16T08:30:23.898Z,77.60
2018-12-16T08:32:51.360Z,77.60
2018-12-16T08:35:18.820Z,77.30
2018-12-16T08:37:46.328Z,77.20
2018-12-16T08:40:13.795Z,77.30
2018-12-16T08:42:41.274Z,77.30
2018-12-16T08:45:08.708Z,76.90
2018-12-16T08:47:36.219Z,77.00
2018-12-16T08:50:04.066Z,76.60
2018-12-16T08:52:31.599Z,76.90
2018-12-16T08:54:59.051Z,76.50
2018-12-16T08:57:26.723Z,76.30
2018-12-16T08:59:54.177Z,77.00
2018-12-16T09:02:21.823Z,77.00
2018-12-16T09:04:49.305Z,77.00
2018-12-16T09:07:16.766Z,76.80
2018-12-16T09:09:44.569Z,76.60
2018-12-16T09:12:12.073Z,77.50
2018-12-16T09:14:39.926Z,76.50
2018-12-16T09:17:07.437Z,76.40
2018-12-16T09:19:35.010Z,76.20
2018-12-16T09:22:02.479Z,76.30
2018-12-16T09:24:37.047Z,76.00
2018-12-16T09:26:59.449Z,75.80
2018-12-16T09:29:26.929Z,75.90
2018-12-16T09:31:54.379Z,75.70
2018-12-16T09:34:22.033Z,75.80
2018-12-16T09:36:49.604Z,75.90
2018-12-16T09:39:17.222Z,75.60
2018-12-16T09:41:45.603Z,75.70
2018-12-16T09:44:13.130Z,75.80
2018-12-16T09:46:40.598Z,75.30
2018-12-16T09:49:08.052Z,75.30
2018-12-16T09:51:35.523Z,75.20
2018-12-16T09:54:03.116Z,75.90
2018-12-16T09:56:30.730Z,75.30
2018-12-16T09:58:58.212Z,75.40
2018-12-16T10:01:25.840Z,76.50
2018-12-16T10:03:53.295Z,75.60
2018-12-16T10:06:20.783Z,75.20
2018-12-16T10:08:48.249Z,75.20
2018-12-16T10:11:15.850Z,75.30
2018-12-16T10:13:43.329Z,75.30
2018-12-16T10:16:10.831Z,75.10
2018-12-16T10:18:38.308Z,75.90
2018-12-16T10:21:05.819Z,74.80
2018-12-16T10:23:33.311Z,74.40
2018-12-16T10:26:00.803Z,74.10
2018-12-16T10:28:28.302Z,73.90
2018-12-16T10:30:55.788Z,73.70
2018-12-16T10:33:23.246Z,73.90
2018-12-16T10:35:50.709Z,73.70
2018-12-16T10:38:18.192Z,73.70
2018-12-16T10:40:45.686Z,73.70
2018-12-16T10:43:13.143Z,73.70
2018-12-16T10:45:40.614Z,74.00
2018-12-16T10:48:08.090Z,73.70
2018-12-16T10:50:35.551Z,72.90
2018-12-16T10:53:03.029Z,72.40
2018-12-16T10:55:30.473Z,71.70
2018-12-16T10:57:57.936Z,71.00
2018-12-16T11:00:31.125Z,70.10
2018-12-16T11:02:58.601Z,69.20
2018-12-16T11:05:27.610Z,68.80
2018-12-16T11:07:55.081Z,68.10
2018-12-16T11:10:22.597Z,67.20
2018-12-16T11:12:50.150Z,67.10
2018-12-16T11:15:17.665Z,66.70
2018-12-16T11:17:45.133Z,66.90
2018-12-16T11:20:12.701Z,67.30
2018-12-16T11:22:40.170Z,67.40
2018-12-16T11:25:09.112Z,67.40
2018-12-16T11:27:36.578Z,67.40
2018-12-16T11:30:05.896Z,67.20
2018-12-16T11:32:33.376Z,67.70
2018-12-16T11:35:00.856Z,67.60
2018-12-16T11:37:28.291Z,67.70
2018-12-16T11:39:55.794Z,67.60
2018-12-16T11:42:23.261Z,67.50
2018-12-16T11:44:50.754Z,68.20
2018-12-16T11:47:18.209Z,68.60
2018-12-16T11:49:45.705Z,68.20
2018-12-16T11:52:13.176Z,67.90
2018-12-16T11:54:40.690Z,66.80
2018-12-16T11:57:08.144Z,67.10
2018-12-16T11:59:35.626Z,66.80
2018-12-16T12:02:03.100Z,66.70
2018-12-16T12:04:30.565Z,66.70
2018-12-16T12:06:58.071Z,66.90
2018-12-16T12:09:25.612Z,67.20
2018-12-16T12:11:53.103Z,67.60
2018-12-16T12:14:20.582Z,68.00
2018-12-16T12:16:48.051Z,68.40
2018-12-16T12:19:15.494Z,68.60
2018-12-16T12:21:43.005Z,68.60
2018-12-16T12:24:10.446Z,68.80
2018-12-16T12:26:37.923Z,69.20
2018-12-16T12:29:05.417Z,69.40
2018-12-16T12:31:32.926Z,69.60
2018-12-16T12:34:00.421Z,70.00
2018-12-16T12:36:27.908Z,70.30
2018-12-16T12:38:55.373Z,70.00
2018-12-16T12:41:22.850Z,70.00
2018-12-16T12:43:50.329Z,70.30
2018-12-16T12:46:17.920Z,70.80
2018-12-16T12:48:45.425Z,70.90
2018-12-16T12:51:12.975Z,71.00
2018-12-16T12:53:40.536Z,71.30
2018-12-16T12:56:07.999Z,71.30
2018-12-16T12:58:35.481Z,71.10
2018-12-16T13:01:02.934Z,71.30
2018-12-16T13:03:30.421Z,71.60
2018-12-16T13:05:57.890Z,72.30
2018-12-16T13:08:25.351Z,71.50
2018-12-16T13:10:52.852Z,71.50
2018-12-16T13:13:20.316Z,71.70
2018-12-16T13:15:47.790Z,71.70
2018-12-16T13:18:15.288Z,71.70
2018-12-16T13:20:42.764Z,71.80
2018-12-16T13:23:10.237Z,71.80
2018-12-16T13:25:49.681Z,72.20
2018-12-16T13:28:17.169Z,72.40
2018-12-16T13:30:44.643Z,72.50
2018-12-16T13:33:12.135Z,72.40
2018-12-16T13:35:39.838Z,72.50
2018-12-16T13:38:07.285Z,72.50
2018-12-16T13:40:34.770Z,72.80
2018-12-16T13:43:02.250Z,72.70
2018-12-16T13:45:29.819Z,72.60
2018-12-16T13:47:57.418Z,72.50
2018-12-16T13:50:24.929Z,72.60
2018-12-16T13:52:52.505Z,72.90
2018-12-16T13:55:20.035Z,72.90
2018-12-16T13:57:47.913Z,73.10
2018-12-16T14:00:15.459Z,73.20
2018-12-16T14:02:42.932Z,73.30
2018-12-16T14:05:10.453Z,73.20
2018-12-16T14:07:37.985Z,73.30
2018-12-16T14:10:06.519Z,73.50
2018-12-16T14:12:33.999Z,73.10
2018-12-16T14:15:01.450Z,73.50
2018-12-16T14:17:28.949Z,73.90
2018-12-16T14:19:56.413Z,74.00
2018-12-16T14:22:23.906Z,74.00
2018-12-16T14:24:51.376Z,74.00
2018-12-16T14:27:18.865Z,74.00
2018-12-16T14:29:46.338Z,74.20
2018-12-16T14:32:13.835Z,74.20
2018-12-16T14:34:41.414Z,74.20
2018-12-16T14:37:08.992Z,74.20
2018-12-16T14:39:36.508Z,74.10
2018-12-16T14:42:04.084Z,74.80
2018-12-16T14:44:31.553Z,74.00
2018-12-16T14:46:59.076Z,74.20
2018-12-16T14:49:26.568Z,74.40
2018-12-16T14:51:54.071Z,74.30
2018-12-16T14:54:21.587Z,74.30
2018-12-16T14:56:49.039Z,74.40
2018-12-16T14:59:16.530Z,74.60
2018-12-16T15:01:43.986Z,74.60
2018-12-16T15:04:11.476Z,74.80
2018-12-16T15:06:38.983Z,74.60
2018-12-16T15:09:06.688Z,74.60
2018-12-16T15:11:34.264Z,74.70
2018-12-16T15:14:01.715Z,74.70
2018-12-16T15:16:29.214Z,74.70
2018-12-16T15:18:56.738Z,74.80
2018-12-16T15:21:24.236Z,74.90
2018-12-16T15:23:51.741Z,74.80
2018-12-16T15:26:19.252Z,75.00
2018-12-16T15:28:46.745Z,74.80
2018-12-16T15:31:14.237Z,75.10
2018-12-16T15:33:41.706Z,75.10
2018-12-16T15:36:09.184Z,75.20
2018-12-16T15:38:36.651Z,76.30
2018-12-16T15:41:04.144Z,76.00
2018-12-16T15:43:31.649Z,75.50
2018-12-16T15:45:59.118Z,75.40
2018-12-16T15:48:26.639Z,75.40
2018-12-16T15:50:54.155Z,75.50
2018-12-16T15:53:21.647Z,75.60
2018-12-16T15:55:49.205Z,75.50
2018-12-16T15:58:16.680Z,75.60
2018-12-16T16:00:44.157Z,75.60
2018-12-16T16:03:11.650Z,75.90
2018-12-16T16:05:39.247Z,76.10
2018-12-16T16:08:06.711Z,76.20
2018-12-16T16:10:34.181Z,76.00
2018-12-16T16:13:01.640Z,75.90
2018-12-16T16:15:29.100Z,76.10
2018-12-16T16:17:56.585Z,76.30
2018-12-16T16:20:24.090Z,75.60
2018-12-16T16:22:51.567Z,76.00
2018-12-16T16:25:19.052Z,75.90
2018-12-16T16:27:46.566Z,76.10
2018-12-16T16:30:14.022Z,76.00
2018-12-16T16:32:41.519Z,76.10
2018-12-16T16:35:08.995Z,76.20
2018-12-16T16:37:36.961Z,76.20
2018-12-16T16:40:05.321Z,76.40
2018-12-16T16:42:32.798Z,76.70
2018-12-16T16:45:00.283Z,76.60
2018-12-16T16:47:27.762Z,76.60
2018-12-16T16:49:55.347Z,76.50
2018-12-16T16:52:22.852Z,76.20
2018-12-16T16:54:50.336Z,76.90
2018-12-16T16:57:17.822Z,77.00
2018-12-16T16:59:45.325Z,77.10
2018-12-16T17:02:12.848Z,77.30
2018-12-16T17:04:40.318Z,77.50
2018-12-16T17:07:07.809Z,77.50
2018-12-16T17:09:35.403Z,77.70
2018-12-16T17:12:02.851Z,77.80
2018-12-16T17:14:30.341Z,78.60
2018-12-16T17:16:57.897Z,78.50
2018-12-16T17:19:25.780Z,78.30
2018-12-16T17:21:53.436Z,78.10
2018-12-16T17:24:21.491Z,77.90
2018-12-16T17:26:49.010Z,77.90
2018-12-16T17:29:16.518Z,78.10
2018-12-16T17:31:44.540Z,78.10
2018-12-16T17:35:01.057Z,78.90
2018-12-16T17:37:28.520Z,78.10
2018-12-16T17:39:55.997Z,78.10
2018-12-16T17:42:23.483Z,77.80
2018-12-16T17:44:50.981Z,78.00
2018-12-16T17:47:18.471Z,78.10
2018-12-16T17:49:45.942Z,78.30
2018-12-16T17:52:13.382Z,78.30
2018-12-16T17:54:40.903Z,78.50
2018-12-16T17:57:08.380Z,78.50
2018-12-16T17:59:35.846Z,78.70
2018-12-16T18:02:03.806Z,78.80
2018-12-16T18:04:31.235Z,78.80
2018-12-16T18:06:58.708Z,78.80
2018-12-16T18:09:26.241Z,78.90
2018-12-16T18:11:53.798Z,79.20
2018-12-16T18:14:21.235Z,78.90
2018-12-16T18:16:48.740Z,79.00
2018-12-16T18:19:16.208Z,79.10
2018-12-16T18:21:44.387Z,78.90
2018-12-16T18:24:11.878Z,78.90
2018-12-16T18:26:44.073Z,79.10
2018-12-16T18:29:08.860Z,79.00
2018-12-16T18:31:36.421Z,78.90
2018-12-16T18:34:04.253Z,79.00
2018-12-16T18:36:31.744Z,79.70
2018-12-16T18:38:59.231Z,79.00
2018-12-16T18:41:26.720Z,78.90
2018-12-16T18:43:54.345Z,79.10
2018-12-16T18:46:21.835Z,79.20
2018-12-16T18:48:49.348Z,79.20
2018-12-16T18:51:16.835Z,79.20
2018-12-16T18:53:44.290Z,79.20
2018-12-16T18:56:11.795Z,79.30
2018-12-16T18:58:39.298Z,79.20
2018-12-16T19:01:06.869Z,79.30
2018-12-16T19:03:34.471Z,79.30
2018-12-16T19:06:02.566Z,79.40
2018-12-16T19:08:30.087Z,79.50
2018-12-16T19:10:57.681Z,79.70
2018-12-16T19:13:25.139Z,79.70
2018-12-16T19:15:52.666Z,79.70
2018-12-16T19:18:20.494Z,79.70
2018-12-16T19:20:48.005Z,79.80
2018-12-16T19:23:15.490Z,79.80
2018-12-16T19:25:43.068Z,79.90
2018-12-16T19:28:10.556Z,79.70
2018-12-16T19:30:38.112Z,79.60
2018-12-16T19:33:05.565Z,79.70
2018-12-16T19:35:33.073Z,79.80
2018-12-16T19:38:01.675Z,80.10
2018-12-16T19:40:30.122Z,80.00
2018-12-16T19:42:57.607Z,79.80
2018-12-16T19:45:25.106Z,80.00
2018-12-16T19:47:52.679Z,79.80
2018-12-16T19:50:20.237Z,79.70
2018-12-16T19:52:47.763Z,79.80
2018-12-16T19:55:16.405Z,79.60
2018-12-16T19:57:43.934Z,80.00
2018-12-16T20:00:11.953Z,79.80
2018-12-16T20:02:39.820Z,79.60
2018-12-16T20:05:09.950Z,79.70
2018-12-16T20:07:37.664Z,79.80
2018-12-16T20:10:05.698Z,79.70
2018-12-16T20:12:33.197Z,80.00
2018-12-16T20:15:00.686Z,79.80
2018-12-16T20:17:28.313Z,79.80
2018-12-16T20:19:55.797Z,79.80
2018-12-16T20:22:23.352Z,79.90
2018-12-16T20:24:50.836Z,80.00
2018-12-16T20:27:18.502Z,80.00
2018-12-16T20:29:46.030Z,79.90
2018-12-16T20:32:13.571Z,79.90
2018-12-16T20:34:41.102Z,79.90
2018-12-16T20:37:08.559Z,79.90
2018-12-16T20:39:36.040Z,80.20
2018-12-16T20:42:03.501Z,80.60
2018-12-16T20:44:31.128Z,80.40
2018-12-16T20:46:58.618Z,80.20
2018-12-16T20:49:26.144Z,80.20
2018-12-16T20:51:53.617Z,80.20
2018-12-16T20:54:21.235Z,80.30
2018-12-16T20:56:48.711Z,81.00
2018-12-16T20:59:16.294Z,80.90
2018-12-16T21:01:43.946Z,80.50
2018-12-16T21:04:11.426Z,80.50
2018-12-16T21:06:38.888Z,80.20
2018-12-16T21:09:06.453Z,80.30
2018-12-16T21:11:39.606Z,80.10
2018-12-16T21:14:12.953Z,80.10
2018-12-16T21:16:46.051Z,80.20
2018-12-16T21:19:14.068Z,80.10
2018-12-16T21:21:41.707Z,80.30
2018-12-16T21:24:09.291Z,80.30
2018-12-16T21:26:36.849Z,81.10
2018-12-16T21:29:04.321Z,80.40
2018-12-16T21:31:31.840Z,80.60
2018-12-16T21:33:59.301Z,80.70
2018-12-16T21:36:26.777Z,80.60
2018-12-16T21:38:54.234Z,80.70
2018-12-16T21:41:21.726Z,80.90
2018-12-16T21:43:49.258Z,80.80
2018-12-16T21:46:16.752Z,80.70
2018-12-16T21:48:44.209Z,80.70
2018-12-16T21:51:11.692Z,80.40
2018-12-16T21:53:39.149Z,80.20
2018-12-16T21:56:06.608Z,80.40
2018-12-16T21:58:34.079Z,80.50
2018-12-16T22:01:01.575Z,80.60
2018-12-16T22:03:29.030Z,80.30
2018-12-16T22:05:56.507Z,80.30
2018-12-16T22:08:24.008Z,80.30
2018-12-16T22:10:51.474Z,80.30
2018-12-16T22:13:18.988Z,80.40
2018-12-16T22:15:46.460Z,80.30
2018-12-16T22:18:14.447Z,80.40
2018-12-16T22:20:41.884Z,80.50
2018-12-16T22:23:09.412Z,80.80
2018-12-16T22:25:36.893Z,80.60
2018-12-16T22:28:04.378Z,80.80
2018-12-16T22:30:31.875Z,80.70
2018-12-16T22:32:59.358Z,80.90
2018-12-16T22:35:26.822Z,80.70
2018-12-16T22:37:54.326Z,80.60
2018-12-16T22:40:22.087Z,80.40
2018-12-16T22:42:49.707Z,80.50
2018-12-16T22:45:17.171Z,80.50
2018-12-16T22:47:44.684Z,80.50
2018-12-16T22:50:12.363Z,80.40
2018-12-16T22:52:39.839Z,80.40
2018-12-16T22:55:07.412Z,80.40
2018-12-16T22:57:34.894Z,80.50
2018-12-16T23:00:02.549Z,80.80
2018-12-16T23:02:30.008Z,80.60
2018-12-16T23:04:57.488Z,80.70
2018-12-16T23:07:24.955Z,80.70
2018-12-16T23:09:52.421Z,81.00
2018-12-16T23:12:19.904Z,81.10
2018-12-16T23:14:47.369Z,81.20
2018-12-16T23:17:14.808Z,81.10
2018-12-16T23:19:44.254Z,81.20
2018-12-16T23:22:11.729Z,81.50
2018-12-16T23:24:39.563Z,81.60
2018-12-16T23:27:07.019Z,81.80
2018-12-16T23:29:34.466Z,81.80
2018-12-16T23:32:01.940Z,81.70
2018-12-16T23:34:29.425Z,81.80
2018-12-16T23:36:56.874Z,81.80
2018-12-16T23:39:24.355Z,82.00
2018-12-16T23:41:51.831Z,81.90
2018-12-16T23:44:19.291Z,81.90
2018-12-16T23:46:46.756Z,81.70
2018-12-16T23:49:14.210Z,81.70
2018-12-16T23:51:41.672Z,82.00
2018-12-16T23:54:09.158Z,82.10
2018-12-16T23:56:36.753Z,82.20
2018-12-16T23:59:04.322Z,82.10
